createdAt,value
2023-03-13T00:00:29.769Z,-2.59
2023-03-13T00:03:30.771Z,-2.60
2023-03-13T00:06:45.779Z,-2.62
2023-03-13T00:09:45.778Z,-2.64
2023-03-13T00:12:47.777Z,-2.65
2023-03-13T00:15:55.788Z,-2.65
2023-03-13T00:19:04.789Z,-2.64
2023-03-13T00:22:06.132Z,-2.63
2023-03-13T00:25:07.795Z,-2.64
2023-03-13T00:28:09.766Z,-2.63
2023-03-13T00:31:43.974Z,-2.63
2023-03-13T00:34:50.856Z,-2.63
2023-03-13T00:37:51.809Z,-2.61
2023-03-13T00:40:51.805Z,-2.59
2023-03-13T00:43:54.900Z,-2.57
2023-03-13T00:46:57.814Z,-2.57
2023-03-13T00:49:57.860Z,-2.59
2023-03-13T00:52:58.823Z,-2.59
2023-03-13T00:56:09.854Z,-2.59
2023-03-13T00:59:09.816Z,-2.61
2023-03-13T01:02:10.924Z,-2.59
2023-03-13T01:05:10.840Z,-2.56
2023-03-13T01:08:13.924Z,-2.54
2023-03-13T01:11:17.884Z,-2.54
2023-03-13T01:14:20.911Z,-2.56
2023-03-13T01:17:23.940Z,-2.56
2023-03-13T01:20:25.885Z,-2.57
2023-03-13T01:23:25.911Z,-2.58
2023-03-13T01:26:34.045Z,-2.57
2023-03-13T01:29:36.891Z,-2.60
2023-03-13T01:32:37.036Z,-2.63
2023-03-13T01:35:37.932Z,-2.66
2023-03-13T01:38:40.949Z,-2.70
2023-03-13T01:41:49.964Z,-2.72
2023-03-13T01:45:07.049Z,-2.75
2023-03-13T01:48:07.975Z,-2.77
2023-03-13T01:51:20.914Z,-2.78
2023-03-13T01:54:40.988Z,-2.79
2023-03-13T01:57:45.071Z,-2.80
2023-03-13T02:00:49.186Z,-2.83
2023-03-13T02:03:55.966Z,-2.86
2023-03-13T02:06:57.972Z,-2.89
2023-03-13T02:09:59.937Z,-2.90
2023-03-13T02:13:00.976Z,-2.92
2023-03-13T02:16:04.065Z,-2.93
2023-03-13T02:19:03.966Z,-2.94
2023-03-13T02:22:16.068Z,-2.95
2023-03-13T02:25:40.017Z,-2.96
2023-03-13T02:28:50.057Z,-2.99
2023-03-13T02:31:52.005Z,-3.01
2023-03-13T02:34:52.094Z,-3.02
2023-03-13T02:37:54.985Z,-3.03
2023-03-13T02:40:58.987Z,-3.05
2023-03-13T02:43:59.020Z,-3.06
2023-03-13T02:47:02.085Z,-3.04
2023-03-13T02:50:03.029Z,-3.06
2023-03-13T02:53:07.070Z,-3.07
2023-03-13T02:56:07.031Z,-3.08
2023-03-13T02:59:07.086Z,-3.10
2023-03-13T03:02:09.051Z,-3.10
2023-03-13T03:05:09.104Z,-3.10
2023-03-13T03:08:10.063Z,-3.11
2023-03-13T03:11:11.174Z,-3.11
2023-03-13T03:14:13.133Z,-3.09
2023-03-13T03:17:13.192Z,-3.07
2023-03-13T03:20:19.060Z,-3.07
2023-03-13T03:23:20.099Z,-3.08
2023-03-13T03:26:22.115Z,-3.07
2023-03-13T03:29:22.156Z,-3.06
2023-03-13T03:32:23.236Z,-3.09
2023-03-13T03:35:23.132Z,-3.11
2023-03-13T03:38:23.146Z,-3.14
2023-03-13T03:41:25.118Z,-3.16
2023-03-13T03:44:25.127Z,-3.19
2023-03-13T03:47:26.237Z,-3.21
2023-03-13T03:50:27.473Z,-3.23
2023-03-13T03:53:35.423Z,-3.24
2023-03-13T03:56:35.139Z,-3.22
2023-03-13T03:59:36.129Z,-3.20
2023-03-13T04:02:38.211Z,-3.16
2023-03-13T04:05:44.155Z,-3.12
2023-03-13T04:08:45.162Z,-3.09
2023-03-13T04:11:54.211Z,-3.07
2023-03-13T04:14:54.169Z,-3.05
2023-03-13T04:17:55.180Z,-3.04
2023-03-13T04:20:56.214Z,-2.99
2023-03-13T04:23:57.184Z,-2.93
2023-03-13T04:26:58.164Z,-2.90
2023-03-13T04:29:58.318Z,-2.89
2023-03-13T04:33:24.195Z,-2.85
2023-03-13T04:36:41.173Z,-2.83
2023-03-13T04:40:00.193Z,-2.79
2023-03-13T04:43:20.345Z,-2.20
2023-03-13T04:46:40.383Z,-1.16
2023-03-13T04:50:12.186Z,-0.13
2023-03-13T04:53:29.213Z,0.61
2023-03-13T04:56:43.719Z,1.31
2023-03-13T05:00:18.610Z,2.03
2023-03-13T05:03:38.306Z,2.60
2023-03-13T05:06:45.272Z,3.00
2023-03-13T05:10:18.260Z,3.49
2023-03-13T05:13:34.187Z,4.04
2023-03-13T05:16:58.279Z,4.37
2023-03-13T05:20:22.215Z,4.44
2023-03-13T05:23:59.247Z,4.03
2023-03-13T05:27:13.200Z,4.12
2023-03-13T05:30:24.291Z,4.47
2023-03-13T05:33:32.293Z,4.90
2023-03-13T05:36:52.456Z,5.55
2023-03-13T05:40:04.938Z,6.09
2023-03-13T05:43:34.481Z,6.45
2023-03-13T05:46:45.710Z,6.70
2023-03-13T05:50:07.292Z,6.95
2023-03-13T05:53:30.880Z,7.06
2023-03-13T05:56:47.367Z,7.27
2023-03-13T06:00:02.352Z,7.59
2023-03-13T06:03:23.367Z,7.85
2023-03-13T06:06:23.397Z,8.20
2023-03-13T06:09:23.408Z,8.67
2023-03-13T06:12:25.587Z,9.05
2023-03-13T06:15:28.409Z,9.21
2023-03-13T06:18:40.545Z,9.03
2023-03-13T06:21:40.355Z,8.96
2023-03-13T06:24:44.330Z,8.80
2023-03-13T06:27:44.566Z,8.65
2023-03-13T06:30:44.352Z,8.37
2023-03-13T06:33:49.573Z,7.80
2023-03-13T06:36:52.396Z,7.45
2023-03-13T06:39:53.414Z,7.37
2023-03-13T06:42:57.367Z,7.60
2023-03-13T06:45:59.350Z,8.00
2023-03-13T06:49:03.463Z,8.51
2023-03-13T06:52:12.415Z,9.28
2023-03-13T06:55:12.424Z,9.77
2023-03-13T06:58:31.659Z,9.85
2023-03-13T07:01:32.685Z,9.83
2023-03-13T07:04:38.574Z,9.81
2023-03-13T07:07:39.425Z,9.42
2023-03-13T07:10:40.514Z,9.31
2023-03-13T07:13:41.548Z,9.19
2023-03-13T07:16:46.637Z,9.09
2023-03-13T07:19:54.660Z,9.11
2023-03-13T07:23:07.542Z,9.40
2023-03-13T07:26:13.556Z,9.62
2023-03-13T07:29:15.451Z,9.54
2023-03-13T07:32:17.628Z,9.41
2023-03-13T07:35:19.462Z,9.52
2023-03-13T07:38:19.817Z,10.09
2023-03-13T07:41:21.004Z,10.78
2023-03-13T07:44:23.427Z,11.25
2023-03-13T07:47:23.492Z,11.35
2023-03-13T07:50:25.621Z,11.46
2023-03-13T07:53:29.568Z,11.08
2023-03-13T07:56:33.508Z,10.53
2023-03-13T07:59:35.591Z,10.30
2023-03-13T08:02:38.701Z,9.97
2023-03-13T08:05:41.765Z,9.81
2023-03-13T08:08:49.161Z,9.94
2023-03-13T08:11:54.576Z,9.92
2023-03-13T08:15:10.997Z,9.65
2023-03-13T08:18:12.641Z,9.36
2023-03-13T08:21:18.539Z,9.19
2023-03-13T08:24:23.577Z,8.91
2023-03-13T08:27:27.547Z,8.61
2023-03-13T08:30:35.127Z,8.38
2023-03-13T08:33:38.661Z,7.97
2023-03-13T08:36:54.565Z,7.73
2023-03-13T08:40:05.852Z,7.69
2023-03-13T08:43:06.552Z,7.41
2023-03-13T08:46:08.865Z,7.17
2023-03-13T08:49:11.950Z,7.20
2023-03-13T08:52:14.420Z,7.32
2023-03-13T08:55:16.601Z,7.32
2023-03-13T08:58:21.597Z,7.33
2023-03-13T09:01:26.659Z,7.47
2023-03-13T09:04:26.768Z,7.72
2023-03-13T09:07:33.130Z,7.74
2023-03-13T09:10:35.657Z,7.52
2023-03-13T09:13:38.716Z,7.32
2023-03-13T09:16:42.663Z,7.29
2023-03-13T09:19:57.821Z,7.34
2023-03-13T09:22:59.661Z,7.43
2023-03-13T09:26:09.849Z,7.47
2023-03-13T09:29:11.878Z,7.47
2023-03-13T09:32:19.803Z,7.41
2023-03-13T09:35:23.118Z,7.40
2023-03-13T09:38:23.690Z,7.49
2023-03-13T09:41:42.727Z,7.76
2023-03-13T09:44:54.152Z,7.91
2023-03-13T09:47:57.712Z,7.92
2023-03-13T09:51:10.489Z,7.92
2023-03-13T09:54:22.352Z,8.07
2023-03-13T09:57:53.739Z,8.18
2023-03-13T10:01:05.690Z,8.43
2023-03-13T10:04:28.872Z,8.63
2023-03-13T10:07:28.916Z,8.89
2023-03-13T10:10:46.754Z,9.18
2023-03-13T10:14:03.713Z,9.30
2023-03-13T10:17:17.741Z,9.25
2023-03-13T10:20:47.960Z,9.34
2023-03-13T10:23:56.792Z,9.47
2023-03-13T10:26:58.946Z,9.41
2023-03-13T10:29:59.788Z,9.32
2023-03-13T10:33:00.838Z,9.36
2023-03-13T10:36:00.852Z,9.39
2023-03-13T10:39:02.849Z,9.17
2023-03-13T10:42:02.753Z,8.77
2023-03-13T10:45:02.817Z,8.84
2023-03-13T10:48:10.812Z,9.46
2023-03-13T10:51:13.766Z,10.52
2023-03-13T10:54:13.802Z,11.51
2023-03-13T10:57:50.906Z,12.41
2023-03-13T11:00:52.243Z,13.24
2023-03-13T11:03:53.905Z,13.67
2023-03-13T11:06:54.160Z,13.76
2023-03-13T11:09:56.139Z,13.89
2023-03-13T11:13:02.876Z,13.84
2023-03-13T11:16:06.890Z,13.53
2023-03-13T11:19:34.071Z,13.48
2023-03-13T11:23:11.912Z,13.53
2023-03-13T11:26:17.900Z,13.49
2023-03-13T11:29:38.873Z,13.28
2023-03-13T11:33:09.384Z,12.52
2023-03-13T11:36:10.249Z,11.54
2023-03-13T11:39:36.917Z,10.86
2023-03-13T11:43:25.009Z,10.31
2023-03-13T11:46:33.085Z,10.17
2023-03-13T11:49:34.910Z,10.30
2023-03-13T11:52:42.013Z,10.51
2023-03-13T11:56:02.446Z,10.41
2023-03-13T11:59:14.975Z,10.41
2023-03-13T12:02:49.967Z,10.44
2023-03-13T12:05:58.000Z,10.39
2023-03-13T12:08:59.918Z,10.38
2023-03-13T12:12:08.995Z,10.33
2023-03-13T12:15:26.923Z,10.19
2023-03-13T12:18:44.966Z,10.21
2023-03-13T12:22:01.019Z,10.22
2023-03-13T12:25:09.972Z,10.27
2023-03-13T12:28:16.393Z,10.20
2023-03-13T12:31:25.023Z,9.87
2023-03-13T12:35:03.020Z,9.56
2023-03-13T12:38:34.772Z,9.56
2023-03-13T12:41:58.131Z,9.59
2023-03-13T12:45:13.277Z,9.39
2023-03-13T12:48:28.111Z,9.24
2023-03-13T12:52:14.339Z,9.10
2023-03-13T12:55:38.287Z,9.07
2023-03-13T12:59:04.530Z,8.89
2023-03-13T13:05:35.678Z,8.46
2023-03-13T13:08:38.246Z,8.34
2023-03-13T13:11:51.511Z,8.20
2023-03-13T13:15:11.522Z,8.00
2023-03-13T13:18:39.792Z,7.93
2023-03-13T13:21:53.472Z,7.85
2023-03-13T13:25:14.438Z,7.80
2023-03-13T13:28:51.697Z,7.78
2023-03-13T13:32:18.228Z,7.67
2023-03-13T13:35:27.937Z,7.50
2023-03-13T13:38:32.565Z,7.40
2023-03-13T13:45:27.157Z,7.29
2023-03-13T13:48:51.905Z,7.25
2023-03-13T13:52:18.307Z,7.29
2023-03-13T13:55:47.684Z,7.32
2023-03-13T14:02:31.131Z,7.26
2023-03-13T14:05:47.798Z,7.21
2023-03-13T14:08:53.251Z,7.19
2023-03-13T14:11:59.431Z,7.13
2023-03-13T14:15:55.457Z,7.05
2023-03-13T14:18:57.258Z,6.95
2023-03-13T14:22:04.920Z,6.89
2023-03-13T14:25:13.449Z,6.84
2023-03-13T14:28:31.924Z,6.79
2023-03-13T14:31:48.522Z,6.78
2023-03-13T14:34:59.501Z,6.76
2023-03-13T14:38:17.757Z,6.73
2023-03-13T14:41:21.291Z,6.71
2023-03-13T14:48:00.058Z,6.66
2023-03-13T14:51:15.117Z,6.65
2023-03-13T14:54:18.172Z,6.64
2023-03-13T14:57:29.240Z,6.64
2023-03-13T15:01:06.748Z,6.62
2023-03-13T15:04:10.493Z,6.59
2023-03-13T15:07:25.575Z,6.56
2023-03-13T15:10:49.467Z,6.53
2023-03-13T15:14:09.701Z,6.51
2023-03-13T15:17:53.142Z,6.48
2023-03-13T15:21:09.266Z,6.46
2023-03-13T15:24:14.770Z,6.46
2023-03-13T15:27:34.740Z,6.43
2023-03-13T15:30:40.791Z,6.42
2023-03-13T15:33:45.570Z,6.42
2023-03-13T15:37:02.528Z,6.39
2023-03-13T15:40:28.670Z,6.37
2023-03-13T15:43:40.572Z,6.36
2023-03-13T15:46:58.922Z,6.36
2023-03-13T15:50:01.819Z,6.35
2023-03-13T15:53:11.778Z,6.35
2023-03-13T15:56:40.000Z,6.33
2023-03-13T15:59:54.889Z,6.30
2023-03-13T16:03:09.088Z,6.28
2023-03-13T16:06:11.760Z,6.28
2023-03-13T16:09:14.409Z,6.27
2023-03-13T16:12:15.303Z,6.27
2023-03-13T16:15:20.346Z,6.26
2023-03-13T16:18:37.634Z,6.25
2023-03-13T16:21:46.348Z,6.24
2023-03-13T16:24:47.445Z,6.25
2023-03-13T16:27:48.503Z,6.25
2023-03-13T16:30:53.757Z,6.25
2023-03-13T16:33:55.427Z,6.25
2023-03-13T16:36:55.505Z,6.25
2023-03-13T16:39:59.724Z,6.24
2023-03-13T16:42:59.676Z,6.23
2023-03-13T16:46:04.827Z,6.23
2023-03-13T16:49:07.979Z,6.24
2023-03-13T16:52:12.426Z,6.22
2023-03-13T16:55:12.414Z,6.23
2023-03-13T16:58:13.500Z,6.22
2023-03-13T17:01:21.545Z,6.21
2023-03-13T17:04:23.485Z,6.20
2023-03-13T17:07:36.492Z,6.21
2023-03-13T17:10:55.724Z,6.21
2023-03-13T17:14:03.470Z,6.22
2023-03-13T17:17:12.143Z,6.21
2023-03-13T17:20:28.797Z,6.21
2023-03-13T17:23:37.522Z,6.22
2023-03-13T17:26:51.195Z,6.23
2023-03-13T17:29:56.386Z,6.24
2023-03-13T17:32:59.214Z,6.25
2023-03-13T17:36:00.794Z,6.25
2023-03-13T17:39:03.567Z,6.23
2023-03-13T17:42:06.525Z,6.18
2023-03-13T17:45:08.505Z,6.13
2023-03-13T17:48:09.609Z,6.09
2023-03-13T17:51:10.521Z,6.03
2023-03-13T17:54:13.704Z,5.99
2023-03-13T17:57:15.931Z,5.92
2023-03-13T18:00:41.566Z,5.86
2023-03-13T18:03:43.746Z,5.79
2023-03-13T18:06:48.165Z,5.72
2023-03-13T18:09:53.765Z,5.67
2023-03-13T18:13:01.899Z,5.60
2023-03-13T18:16:01.695Z,5.54
2023-03-13T18:19:11.644Z,5.49
2023-03-13T18:22:11.740Z,5.46
2023-03-13T18:25:18.194Z,5.42
2023-03-13T18:28:23.555Z,5.38
2023-03-13T18:31:27.305Z,5.35
2023-03-13T18:34:29.456Z,5.33
2023-03-13T18:37:43.412Z,5.32
2023-03-13T18:40:47.645Z,5.31
2023-03-13T18:43:50.193Z,5.29
2023-03-13T18:46:55.485Z,5.28
2023-03-13T18:50:01.942Z,5.24
2023-03-13T18:53:05.965Z,5.19
2023-03-13T18:56:05.674Z,5.16
2023-03-13T18:59:07.620Z,5.11
2023-03-13T19:02:07.697Z,5.06
2023-03-13T19:05:12.157Z,4.99
2023-03-13T19:08:14.199Z,4.94
2023-03-13T19:11:20.275Z,4.88
2023-03-13T19:14:31.961Z,4.82
2023-03-13T19:17:50.883Z,4.78
2023-03-13T19:20:56.926Z,4.75
2023-03-13T19:24:03.762Z,4.71
2023-03-13T19:27:11.986Z,4.67
2023-03-13T19:30:15.873Z,4.64
2023-03-13T19:33:17.708Z,4.62
2023-03-13T19:36:23.739Z,4.61
2023-03-13T19:39:31.782Z,4.57
2023-03-13T19:42:33.696Z,4.53
2023-03-13T19:45:34.234Z,4.49
2023-03-13T19:48:38.950Z,4.46
2023-03-13T19:51:43.824Z,4.44
2023-03-13T19:54:44.739Z,4.40
2023-03-13T19:57:47.744Z,4.38
2023-03-13T20:00:48.980Z,4.36
2023-03-13T20:03:49.709Z,4.32
2023-03-13T20:06:52.792Z,4.29
2023-03-13T20:09:53.720Z,4.25
2023-03-13T20:12:53.841Z,4.21
2023-03-13T20:15:55.072Z,4.18
2023-03-13T20:18:57.759Z,4.16
2023-03-13T20:21:58.764Z,4.13
2023-03-13T20:25:01.896Z,4.08
2023-03-13T20:28:09.771Z,4.03
2023-03-13T20:31:10.058Z,4.00
2023-03-13T20:34:09.873Z,3.97
2023-03-13T20:37:09.797Z,3.96
2023-03-13T20:40:14.777Z,3.96
2023-03-13T20:43:17.153Z,3.95
2023-03-13T20:46:28.912Z,3.94
2023-03-13T20:49:29.936Z,3.94
2023-03-13T20:52:33.976Z,3.93
2023-03-13T20:55:36.821Z,3.91
2023-03-13T20:58:38.817Z,3.91
2023-03-13T21:01:38.969Z,3.91
2023-03-13T21:04:39.977Z,3.89
2023-03-13T21:07:39.850Z,3.87
2023-03-13T21:10:46.579Z,3.83
2023-03-13T21:13:46.926Z,3.82
2023-03-13T21:16:54.138Z,3.79
2023-03-13T21:19:55.916Z,3.78
2023-03-13T21:22:57.061Z,3.77
2023-03-13T21:25:57.153Z,3.74
2023-03-13T21:28:58.898Z,3.73
2023-03-13T21:32:06.008Z,3.72
2023-03-13T21:35:05.899Z,3.72
2023-03-13T21:38:10.090Z,3.72
2023-03-13T21:41:10.030Z,3.73
2023-03-13T21:44:11.938Z,3.75
2023-03-13T21:47:15.275Z,3.77
2023-03-13T21:50:23.022Z,3.77
2023-03-13T21:53:25.339Z,3.79
2023-03-13T21:56:26.916Z,3.78
2023-03-13T21:59:35.921Z,3.78
2023-03-13T22:02:35.902Z,3.78
2023-03-13T22:05:36.928Z,3.78
2023-03-13T22:08:39.056Z,3.78
2023-03-13T22:11:40.918Z,3.78
2023-03-13T22:14:44.165Z,3.79
2023-03-13T22:17:44.305Z,3.79
2023-03-13T22:20:48.384Z,3.80
2023-03-13T22:23:51.014Z,3.80
2023-03-13T22:26:53.020Z,3.79
2023-03-13T22:29:53.989Z,3.78
2023-03-13T22:32:55.076Z,3.78
2023-03-13T22:35:56.102Z,3.77
2023-03-13T22:38:56.088Z,3.76
2023-03-13T22:41:57.006Z,3.77
2023-03-13T22:44:56.999Z,3.78
2023-03-13T22:47:57.093Z,3.79
2023-03-13T22:51:00.008Z,3.80
2023-03-13T22:54:01.032Z,3.81
2023-03-13T22:57:02.037Z,3.82
2023-03-13T23:00:03.975Z,3.82
2023-03-13T23:03:04.999Z,3.81
2023-03-13T23:06:06.050Z,3.81
2023-03-13T23:09:06.079Z,3.81
2023-03-13T23:12:06.113Z,3.80
2023-03-13T23:15:12.053Z,3.81
2023-03-13T23:18:13.036Z,3.80
2023-03-13T23:21:23.032Z,3.80
2023-03-13T23:24:23.008Z,3.77
2023-03-13T23:27:26.088Z,3.76
2023-03-13T23:30:26.122Z,3.76
2023-03-13T23:33:26.134Z,3.75
2023-03-13T23:36:29.187Z,3.74
2023-03-13T23:39:33.120Z,3.72
2023-03-13T23:42:38.719Z,3.71
2023-03-13T23:45:48.122Z,3.69
2023-03-13T23:48:50.114Z,3.69
2023-03-13T23:51:52.128Z,3.69
2023-03-13T23:54:53.134Z,3.67
2023-03-13T23:57:54.226Z,3.66
